sensor_id;sensor_type;location;lat;lon;timestamp;pressure;altitude;pressure_sealevel;temperature;humidity
42601;BME280;28229;48.856;9.088;2023-04-21T00:00:51;97593.69;;;3.97;100.00
42601;BME280;28229;48.856;9.088;2023-04-21T00:03:18;97595.50;;;3.96;100.00
42601;BME280;28229;48.856;9.088;2023-04-21T00:05:47;97592.81;;;3.90;100.00
42601;BME280;28229;48.856;9.088;2023-04-21T00:08:14;97584.13;;;3.83;100.00
42601;BME280;28229;48.856;9.088;2023-04-21T00:10:41;97576.88;;;3.78;100.00
42601;BME280;28229;48.856;9.088;2023-04-21T00:13:07;97579.38;;;3.71;100.00
42601;BME280;28229;48.856;9.088;2023-04-21T00:15:33;97584.03;;;3.76;100.00
42601;BME280;28229;48.856;9.088;2023-04-21T00:18:00;97579.66;;;3.76;100.00
42601;BME280;28229;48.856;9.088;2023-04-21T00:20:26;97580.63;;;3.75;100.00
42601;BME280;28229;48.856;9.088;2023-04-21T00:22:53;97575.28;;;3.62;100.00
42601;BME280;28229;48.856;9.088;2023-04-21T00:25:19;97574.91;;;3.65;100.00
42601;BME280;28229;48.856;9.088;2023-04-21T00:27:46;97570.06;;;3.62;100.00
42601;BME280;28229;48.856;9.088;2023-04-21T00:30:12;97570.56;;;3.72;100.00
42601;BME280;28229;48.856;9.088;2023-04-21T00:32:38;97572.19;;;3.73;100.00
42601;BME280;28229;48.856;9.088;2023-04-21T00:35:05;97571.47;;;3.79;100.00
42601;BME280;28229;48.856;9.088;2023-04-21T00:37:33;97579.91;;;3.81;100.00
42601;BME280;28229;48.856;9.088;2023-04-21T00:39:59;97574.44;;;3.76;100.00
42601;BME280;28229;48.856;9.088;2023-04-21T00:42:25;97575.88;;;3.79;100.00
42601;BME280;28229;48.856;9.088;2023-04-21T00:44:51;97567.09;;;3.80;100.00
42601;BME280;28229;48.856;9.088;2023-04-21T00:47:18;97566.25;;;3.79;100.00
42601;BME280;28229;48.856;9.088;2023-04-21T00:49:45;97562.41;;;3.75;100.00
42601;BME280;28229;48.856;9.088;2023-04-21T00:52:13;97554.25;;;3.78;100.00
42601;BME280;28229;48.856;9.088;2023-04-21T00:54:41;97555.41;;;3.76;100.00
42601;BME280;28229;48.856;9.088;2023-04-21T00:57:08;97555.03;;;3.79;100.00
42601;BME280;28229;48.856;9.088;2023-04-21T00:59:35;97554.25;;;3.78;100.00
42601;BME280;28229;48.856;9.088;2023-04-21T01:02:02;97557.22;;;3.75;100.00
42601;BME280;28229;48.856;9.088;2023-04-21T01:04:29;97559.00;;;3.75;100.00
42601;BME280;28229;48.856;9.088;2023-04-21T01:07:00;97557.75;;;3.71;100.00
42601;BME280;28229;48.856;9.088;2023-04-21T01:09:27;97558.41;;;3.73;100.00
42601;BME280;28229;48.856;9.088;2023-04-21T01:14:27;97552.94;;;3.68;100.00
42601;BME280;28229;48.856;9.088;2023-04-21T01:16:53;97549.31;;;3.69;100.00
42601;BME280;28229;48.856;9.088;2023-04-21T01:19:19;97555.72;;;3.66;100.00
42601;BME280;28229;48.856;9.088;2023-04-21T01:21:45;97551.03;;;3.61;100.00
42601;BME280;28229;48.856;9.088;2023-04-21T01:24:12;97551.97;;;3.54;100.00
42601;BME280;28229;48.856;9.088;2023-04-21T01:26:38;97543.72;;;3.50;100.00
42601;BME280;28229;48.856;9.088;2023-04-21T01:29:04;97548.72;;;3.52;100.00
42601;BME280;28229;48.856;9.088;2023-04-21T01:31:31;97545.59;;;3.41;100.00
42601;BME280;28229;48.856;9.088;2023-04-21T01:34:02;97541.84;;;3.44;100.00
42601;BME280;28229;48.856;9.088;2023-04-21T01:36:29;97545.34;;;3.36;100.00
42601;BME280;28229;48.856;9.088;2023-04-21T01:38:56;97542.47;;;3.31;100.00
42601;BME280;28229;48.856;9.088;2023-04-21T01:41:23;97552.06;;;3.31;100.00
42601;BME280;28229;48.856;9.088;2023-04-21T01:43:49;97555.19;;;3.26;100.00
42601;BME280;28229;48.856;9.088;2023-04-21T01:46:18;97554.28;;;3.19;100.00
42601;BME280;28229;48.856;9.088;2023-04-21T01:48:45;97556.00;;;3.12;100.00
42601;BME280;28229;48.856;9.088;2023-04-21T01:51:11;97552.50;;;3.04;100.00
42601;BME280;28229;48.856;9.088;2023-04-21T01:53:37;97556.44;;;3.00;100.00
42601;BME280;28229;48.856;9.088;2023-04-21T01:56:04;97554.03;;;2.99;100.00
42601;BME280;28229;48.856;9.088;2023-04-21T01:58:30;97555.72;;;3.07;100.00
42601;BME280;28229;48.856;9.088;2023-04-21T02:00:57;97554.81;;;2.99;100.00
42601;BME280;28229;48.856;9.088;2023-04-21T02:03:23;97556.78;;;2.97;100.00
42601;BME280;28229;48.856;9.088;2023-04-21T02:05:49;97558.22;;;2.85;100.00
42601;BME280;28229;48.856;9.088;2023-04-21T02:08:17;97559.56;;;2.81;100.00
42601;BME280;28229;48.856;9.088;2023-04-21T02:10:43;97553.91;;;2.77;100.00
42601;BME280;28229;48.856;9.088;2023-04-21T02:13:11;97561.41;;;2.57;100.00
42601;BME280;28229;48.856;9.088;2023-04-21T02:15:37;97568.19;;;2.58;100.00
42601;BME280;28229;48.856;9.088;2023-04-21T02:18:04;97566.97;;;2.46;100.00
42601;BME280;28229;48.856;9.088;2023-04-21T02:20:31;97565.56;;;2.43;100.00
42601;BME280;28229;48.856;9.088;2023-04-21T02:22:57;97566.16;;;2.31;100.00
42601;BME280;28229;48.856;9.088;2023-04-21T02:25:23;97558.66;;;2.36;100.00
42601;BME280;28229;48.856;9.088;2023-04-21T02:27:50;97551.53;;;2.29;100.00
42601;BME280;28229;48.856;9.088;2023-04-21T02:30:16;97554.31;;;2.28;100.00
42601;BME280;28229;48.856;9.088;2023-04-21T02:32:43;97558.06;;;2.25;100.00
42601;BME280;28229;48.856;9.088;2023-04-21T02:35:10;97548.31;;;2.27;100.00
42601;BME280;28229;48.856;9.088;2023-04-21T02:37:36;97552.25;;;2.23;100.00
42601;BME280;28229;48.856;9.088;2023-04-21T02:40:03;97548.66;;;2.24;100.00
42601;BME280;28229;48.856;9.088;2023-04-21T02:42:35;97544.13;;;2.26;100.00
42601;BME280;28229;48.856;9.088;2023-04-21T02:45:01;97547.22;;;2.22;100.00
42601;BME280;28229;48.856;9.088;2023-04-21T02:47:30;97548.91;;;2.15;100.00
42601;BME280;28229;48.856;9.088;2023-04-21T02:49:56;97553.59;;;2.19;100.00
42601;BME280;28229;48.856;9.088;2023-04-21T02:52:22;97553.97;;;2.08;100.00
42601;BME280;28229;48.856;9.088;2023-04-21T02:54:51;97557.72;;;2.05;100.00
42601;BME280;28229;48.856;9.088;2023-04-21T02:57:17;97551.69;;;2.05;100.00
42601;BME280;28229;48.856;9.088;2023-04-21T02:59:43;97562.91;;;2.05;100.00
42601;BME280;28229;48.856;9.088;2023-04-21T03:02:09;97565.66;;;2.04;100.00
42601;BME280;28229;48.856;9.088;2023-04-21T03:04:37;97559.56;;;1.97;100.00
42601;BME280;28229;48.856;9.088;2023-04-21T03:07:04;97558.28;;;1.93;100.00
42601;BME280;28229;48.856;9.088;2023-04-21T03:09:31;97554.06;;;1.92;100.00
42601;BME280;28229;48.856;9.088;2023-04-21T03:11:59;97545.25;;;2.01;100.00
42601;BME280;28229;48.856;9.088;2023-04-21T03:14:25;97549.31;;;2.03;100.00
42601;BME280;28229;48.856;9.088;2023-04-21T03:16:51;97547.06;;;2.00;100.00
42601;BME280;28229;48.856;9.088;2023-04-21T03:19:17;97547.38;;;1.97;100.00
42601;BME280;28229;48.856;9.088;2023-04-21T03:21:43;97533.94;;;1.94;100.00
42601;BME280;28229;48.856;9.088;2023-04-21T03:24:10;97530.03;;;1.98;100.00
42601;BME280;28229;48.856;9.088;2023-04-21T03:26:38;97527.16;;;1.93;100.00
42601;BME280;28229;48.856;9.088;2023-04-21T03:29:06;97534.94;;;1.93;100.00
42601;BME280;28229;48.856;9.088;2023-04-21T03:31:32;97533.03;;;1.86;100.00
42601;BME280;28229;48.856;9.088;2023-04-21T03:33:58;97529.19;;;1.74;100.00
42601;BME280;28229;48.856;9.088;2023-04-21T03:36:25;97534.44;;;1.66;100.00
42601;BME280;28229;48.856;9.088;2023-04-21T03:38:51;97539.53;;;1.51;100.00
42601;BME280;28229;48.856;9.088;2023-04-21T03:41:17;97535.34;;;1.42;100.00
42601;BME280;28229;48.856;9.088;2023-04-21T03:43:43;97546.53;;;1.42;100.00
42601;BME280;28229;48.856;9.088;2023-04-21T03:46:20;97540.22;;;1.45;100.00
42601;BME280;28229;48.856;9.088;2023-04-21T03:48:47;97540.31;;;1.51;100.00
42601;BME280;28229;48.856;9.088;2023-04-21T03:51:13;97540.81;;;1.55;100.00
42601;BME280;28229;48.856;9.088;2023-04-21T03:53:40;97529.75;;;1.61;100.00
42601;BME280;28229;48.856;9.088;2023-04-21T03:56:06;97536.28;;;1.57;100.00
42601;BME280;28229;48.856;9.088;2023-04-21T03:58:33;97531.88;;;1.58;100.00
42601;BME280;28229;48.856;9.088;2023-04-21T04:00:59;97546.47;;;1.59;100.00
42601;BME280;28229;48.856;9.088;2023-04-21T04:03:26;97543.03;;;1.66;100.00
42601;BME280;28229;48.856;9.088;2023-04-21T04:05:52;97538.63;;;1.67;100.00
42601;BME280;28229;48.856;9.088;2023-04-21T04:08:18;97539.63;;;1.66;100.00
42601;BME280;28229;48.856;9.088;2023-04-21T04:10:44;97542.22;;;1.66;100.00
42601;BME280;28229;48.856;9.088;2023-04-21T04:13:11;97544.13;;;1.72;100.00
42601;BME280;28229;48.856;9.088;2023-04-21T04:15:38;97542.16;;;1.74;100.00
42601;BME280;28229;48.856;9.088;2023-04-21T04:18:04;97534.38;;;1.74;100.00
42601;BME280;28229;48.856;9.088;2023-04-21T04:20:30;97541.19;;;1.75;100.00
42601;BME280;28229;48.856;9.088;2023-04-21T04:22:56;97543.72;;;1.83;100.00
42601;BME280;28229;48.856;9.088;2023-04-21T04:25:22;97540.16;;;1.84;100.00
42601;BME280;28229;48.856;9.088;2023-04-21T04:27:49;97540.81;;;1.86;100.00
42601;BME280;28229;48.856;9.088;2023-04-21T04:30:15;97540.81;;;1.86;100.00
42601;BME280;28229;48.856;9.088;2023-04-21T04:32:41;97550.38;;;1.86;100.00
42601;BME280;28229;48.856;9.088;2023-04-21T04:35:08;97549.28;;;1.80;100.00
42601;BME280;28229;48.856;9.088;2023-04-21T04:37:35;97543.63;;;1.77;100.00
42601;BME280;28229;48.856;9.088;2023-04-21T04:40:03;97544.09;;;1.80;100.00
42601;BME280;28229;48.856;9.088;2023-04-21T04:42:39;97548.88;;;1.92;100.00
42601;BME280;28229;48.856;9.088;2023-04-21T04:45:06;97550.22;;;1.87;100.00
42601;BME280;28229;48.856;9.088;2023-04-21T04:47:34;97546.28;;;1.92;100.00
42601;BME280;28229;48.856;9.088;2023-04-21T04:50:00;97544.00;;;1.97;100.00
42601;BME280;28229;48.856;9.088;2023-04-21T04:52:26;97548.19;;;1.98;100.00
42601;BME280;28229;48.856;9.088;2023-04-21T04:54:52;97547.22;;;1.99;100.00
42601;BME280;28229;48.856;9.088;2023-04-21T04:57:20;97561.16;;;1.98;100.00
42601;BME280;28229;48.856;9.088;2023-04-21T04:59:46;97565.72;;;1.96;100.00
42601;BME280;28229;48.856;9.088;2023-04-21T05:02:13;97576.69;;;2.06;100.00
42601;BME280;28229;48.856;9.088;2023-04-21T05:04:39;97569.88;;;2.05;100.00
42601;BME280;28229;48.856;9.088;2023-04-21T05:07:06;97565.66;;;2.04;100.00
42601;BME280;28229;48.856;9.088;2023-04-21T05:09:33;97573.16;;;1.99;100.00
42601;BME280;28229;48.856;9.088;2023-04-21T05:11:59;97577.72;;;1.97;100.00
42601;BME280;28229;48.856;9.088;2023-04-21T05:14:26;97580.31;;;1.97;100.00
42601;BME280;28229;48.856;9.088;2023-04-21T05:16:52;97587.38;;;2.11;100.00
42601;BME280;28229;48.856;9.088;2023-04-21T05:19:19;97585.72;;;2.10;100.00
42601;BME280;28229;48.856;9.088;2023-04-21T05:21:45;97589.31;;;2.09;100.00
42601;BME280;28229;48.856;9.088;2023-04-21T05:24:11;97579.88;;;2.16;100.00
42601;BME280;28229;48.856;9.088;2023-04-21T05:26:37;97589.91;;;2.19;100.00
42601;BME280;28229;48.856;9.088;2023-04-21T05:29:03;97593.47;;;2.18;100.00
42601;BME280;28229;48.856;9.088;2023-04-21T05:31:29;97586.91;;;2.31;100.00
42601;BME280;28229;48.856;9.088;2023-04-21T05:33:58;97593.47;;;2.41;100.00
42601;BME280;28229;48.856;9.088;2023-04-21T05:36:24;97586.78;;;2.47;100.00
42601;BME280;28229;48.856;9.088;2023-04-21T05:38:50;97588.03;;;2.51;100.00
42601;BME280;28229;48.856;9.088;2023-04-21T05:41:19;97598.44;;;2.51;100.00
42601;BME280;28229;48.856;9.088;2023-04-21T10:44:42;97470.09;;;16.55;58.08
42601;BME280;28229;48.856;9.088;2023-04-21T10:47:09;97469.84;;;16.67;56.73
42601;BME280;28229;48.856;9.088;2023-04-21T10:49:39;97464.50;;;16.77;57.56
42601;BME280;28229;48.856;9.088;2023-04-21T10:52:07;97468.44;;;17.00;55.78
42601;BME280;28229;48.856;9.088;2023-04-21T10:55:03;97466.63;;;17.01;56.95
42601;BME280;28229;48.856;9.088;2023-04-21T10:57:33;97457.31;;;16.83;57.98
42601;BME280;28229;48.856;9.088;2023-04-21T11:00:00;97463.19;;;16.85;56.78
42601;BME280;28229;48.856;9.088;2023-04-21T11:02:30;97454.66;;;16.93;57.79
42601;BME280;28229;48.856;9.088;2023-04-21T11:04:57;97455.72;;;16.97;58.32
42601;BME280;28229;48.856;9.088;2023-04-21T11:07:25;97454.16;;;16.86;57.65
42601;BME280;28229;48.856;9.088;2023-04-21T11:10:10;97450.63;;;17.11;58.15
42601;BME280;28229;48.856;9.088;2023-04-21T11:12:38;97451.84;;;17.39;56.43
42601;BME280;28229;48.856;9.088;2023-04-21T11:15:09;97461.47;;;17.80;53.74
42601;BME280;28229;48.856;9.088;2023-04-21T11:17:36;97451.03;;;17.94;52.46
42601;BME280;28229;48.856;9.088;2023-04-21T11:20:08;97449.84;;;18.10;53.07
42601;BME280;28229;48.856;9.088;2023-04-21T11:22:36;97446.75;;;17.98;53.40
42601;BME280;28229;48.856;9.088;2023-04-21T11:25:02;97453.19;;;17.92;53.75
42601;BME280;28229;48.856;9.088;2023-04-21T11:27:29;97445.75;;;17.83;54.17
42601;BME280;28229;48.856;9.088;2023-04-21T11:30:02;97440.44;;;17.88;54.56
42601;BME280;28229;48.856;9.088;2023-04-21T11:32:29;97446.75;;;17.98;53.89
42601;BME280;28229;48.856;9.088;2023-04-21T11:34:55;97445.22;;;18.26;52.72
42601;BME280;28229;48.856;9.088;2023-04-21T11:37:25;97442.31;;;18.22;52.97
42601;BME280;28229;48.856;9.088;2023-04-21T11:39:57;97442.91;;;18.14;53.33
42601;BME280;28229;48.856;9.088;2023-04-21T11:42:23;97443.41;;;18.51;53.54
42601;BME280;28229;48.856;9.088;2023-04-21T11:44:53;97428.69;;;18.58;52.47
42601;BME280;28229;48.856;9.088;2023-04-21T11:47:22;97432.31;;;18.68;52.14
42601;BME280;28229;48.856;9.088;2023-04-21T11:49:54;97427.72;;;19.02;51.40
42601;BME280;28229;48.856;9.088;2023-04-21T11:54:57;97423.78;;;19.81;47.50
42601;BME280;28229;48.856;9.088;2023-04-21T11:57:26;97423.34;;;19.93;47.29
42601;BME280;28229;48.856;9.088;2023-04-21T11:59:52;97427.47;;;19.85;46.59
42601;BME280;28229;48.856;9.088;2023-04-21T12:02:29;97420.25;;;19.86;47.64
42601;BME280;28229;48.856;9.088;2023-04-21T12:05:00;97415.16;;;20.03;47.42
42601;BME280;28229;48.856;9.088;2023-04-21T12:07:29;97420.69;;;19.93;47.77
42601;BME280;28229;48.856;9.088;2023-04-21T12:09:55;97418.22;;;19.96;48.00
42601;BME280;28229;48.856;9.088;2023-04-21T12:12:22;97415.97;;;19.47;48.67
42601;BME280;28229;48.856;9.088;2023-04-21T12:14:51;97408.53;;;19.44;49.09
42601;BME280;28229;48.856;9.088;2023-04-21T12:17:18;97407.00;;;19.37;48.56
42601;BME280;28229;48.856;9.088;2023-04-21T12:19:45;97406.28;;;19.32;48.61
42601;BME280;28229;48.856;9.088;2023-04-21T12:22:16;97402.25;;;19.34;47.37
42601;BME280;28229;48.856;9.088;2023-04-21T12:24:44;97402.66;;;19.85;47.21
42601;BME280;28229;48.856;9.088;2023-04-21T12:27:11;97405.66;;;19.97;45.84
42601;BME280;28229;48.856;9.088;2023-04-21T12:29:37;97400.31;;;20.30;46.53
42601;BME280;28229;48.856;9.088;2023-04-21T12:32:04;97405.13;;;20.61;44.85
42601;BME280;28229;48.856;9.088;2023-04-21T12:34:31;97397.03;;;20.80;45.08
42601;BME280;28229;48.856;9.088;2023-04-21T12:36:57;97391.66;;;20.52;44.45
42601;BME280;28229;48.856;9.088;2023-04-21T12:39:24;97378.94;;;20.63;45.85
42601;BME280;28229;48.856;9.088;2023-04-21T12:41:50;97385.28;;;20.81;46.16
42601;BME280;28229;48.856;9.088;2023-04-21T12:44:16;97382.78;;;20.84;46.09
42601;BME280;28229;48.856;9.088;2023-04-21T12:46:42;97377.94;;;21.00;43.01
42601;BME280;28229;48.856;9.088;2023-04-21T12:49:08;97368.88;;;21.24;42.34
42601;BME280;28229;48.856;9.088;2023-04-21T12:51:36;97373.50;;;21.46;42.03
42601;BME280;28229;48.856;9.088;2023-04-21T12:54:03;97374.09;;;21.79;41.56
42601;BME280;28229;48.856;9.088;2023-04-21T12:56:29;97376.06;;;21.88;41.70
42601;BME280;28229;48.856;9.088;2023-04-21T12:58:56;97377.91;;;21.87;43.27
42601;BME280;28229;48.856;9.088;2023-04-21T13:01:23;97369.53;;;21.80;42.41
42601;BME280;28229;48.856;9.088;2023-04-21T13:03:49;97371.34;;;21.71;42.68
42601;BME280;28229;48.856;9.088;2023-04-21T13:06:16;97368.97;;;21.69;42.90
42601;BME280;28229;48.856;9.088;2023-04-21T13:08:42;97370.47;;;21.75;43.38
42601;BME280;28229;48.856;9.088;2023-04-21T13:11:08;97363.63;;;21.92;43.91
42601;BME280;28229;48.856;9.088;2023-04-21T13:13:35;97366.78;;;22.16;41.48
42601;BME280;28229;48.856;9.088;2023-04-21T13:16:01;97367.81;;;22.29;41.15
42601;BME280;28229;48.856;9.088;2023-04-21T13:18:27;97368.13;;;22.28;41.70
42601;BME280;28229;48.856;9.088;2023-04-21T13:20:54;97354.81;;;22.22;42.13
42601;BME280;28229;48.856;9.088;2023-04-21T13:23:20;97350.97;;;22.06;42.11
42601;BME280;28229;48.856;9.088;2023-04-21T13:25:46;97342.88;;;21.97;43.27
42601;BME280;28229;48.856;9.088;2023-04-21T13:28:12;97342.75;;;21.57;42.66
42601;BME280;28229;48.856;9.088;2023-04-21T13:30:39;97348.66;;;21.32;44.24
42601;BME280;28229;48.856;9.088;2023-04-21T13:33:06;97345.16;;;21.45;44.92
42601;BME280;28229;48.856;9.088;2023-04-21T13:35:32;97344.03;;;21.23;43.42
42601;BME280;28229;48.856;9.088;2023-04-21T13:37:58;97344.78;;;21.38;44.42
42601;BME280;28229;48.856;9.088;2023-04-21T13:40:24;97339.00;;;21.81;41.75
42601;BME280;28229;48.856;9.088;2023-04-21T13:42:51;97344.53;;;22.07;42.37
42601;BME280;28229;48.856;9.088;2023-04-21T13:45:17;97343.22;;;22.27;40.26
42601;BME280;28229;48.856;9.088;2023-04-21T13:47:43;97339.03;;;22.43;41.66
42601;BME280;28229;48.856;9.088;2023-04-21T13:50:09;97341.66;;;22.66;39.94
42601;BME280;28229;48.856;9.088;2023-04-21T13:52:36;97328.91;;;22.72;39.97
42601;BME280;28229;48.856;9.088;2023-04-21T13:55:02;97330.88;;;23.06;39.62
42601;BME280;28229;48.856;9.088;2023-04-21T13:57:31;97331.88;;;23.10;38.76
42601;BME280;28229;48.856;9.088;2023-04-21T13:59:57;97329.19;;;23.10;37.49
42601;BME280;28229;48.856;9.088;2023-04-21T14:02:24;97327.91;;;23.25;36.32
42601;BME280;28229;48.856;9.088;2023-04-21T14:04:51;97317.66;;;23.36;37.93
42601;BME280;28229;48.856;9.088;2023-04-21T14:07:18;97314.50;;;23.25;37.68
42601;BME280;28229;48.856;9.088;2023-04-21T14:09:45;97307.53;;;23.15;38.93
42601;BME280;28229;48.856;9.088;2023-04-21T14:12:11;97302.00;;;23.03;39.22
42601;BME280;28229;48.856;9.088;2023-04-21T14:14:37;97300.69;;;22.92;39.16
42601;BME280;28229;48.856;9.088;2023-04-21T14:17:03;97296.94;;;22.93;40.16
42601;BME280;28229;48.856;9.088;2023-04-21T14:19:29;97297.66;;;22.76;39.77
42601;BME280;28229;48.856;9.088;2023-04-21T14:21:57;97286.97;;;22.85;39.76
42601;BME280;28229;48.856;9.088;2023-04-21T14:24:23;97288.03;;;22.66;40.31
42601;BME280;28229;48.856;9.088;2023-04-21T14:26:52;97279.13;;;22.39;41.02
42601;BME280;28229;48.856;9.088;2023-04-21T14:29:18;97283.59;;;22.21;41.53
42601;BME280;28229;48.856;9.088;2023-04-21T14:31:44;97273.81;;;22.57;41.40
42601;BME280;28229;48.856;9.088;2023-04-21T14:34:10;97267.50;;;22.53;40.08
42601;BME280;28229;48.856;9.088;2023-04-21T14:36:36;97250.47;;;22.49;41.30
42601;BME280;28229;48.856;9.088;2023-04-21T14:39:05;97254.69;;;22.32;41.32
42601;BME280;28229;48.856;9.088;2023-04-21T14:41:31;97247.50;;;22.59;41.14
42601;BME280;28229;48.856;9.088;2023-04-21T14:43:57;97243.38;;;22.61;41.15
42601;BME280;28229;48.856;9.088;2023-04-21T14:46:25;97251.13;;;22.63;41.56
42601;BME280;28229;48.856;9.088;2023-04-21T14:48:54;97253.78;;;22.54;41.32
42601;BME280;28229;48.856;9.088;2023-04-21T14:51:20;97258.38;;;22.54;40.79
42601;BME280;28229;48.856;9.088;2023-04-21T14:53:46;97254.16;;;22.88;39.99
42601;BME280;28229;48.856;9.088;2023-04-21T14:56:13;97259.75;;;23.17;38.99
42601;BME280;28229;48.856;9.088;2023-04-21T14:58:39;97260.50;;;23.09;40.65
42601;BME280;28229;48.856;9.088;2023-04-21T15:01:05;97257.03;;;23.35;39.88
42601;BME280;28229;48.856;9.088;2023-04-21T15:03:31;97254.84;;;23.37;39.23
42601;BME280;28229;48.856;9.088;2023-04-21T15:05:58;97248.03;;;23.13;39.29
42601;BME280;28229;48.856;9.088;2023-04-21T15:08:24;97257.59;;;22.53;40.64
42601;BME280;28229;48.856;9.088;2023-04-21T15:10:50;97252.44;;;22.92;40.57
42601;BME280;28229;48.856;9.088;2023-04-21T15:13:16;97254.59;;;22.72;40.17
42601;BME280;28229;48.856;9.088;2023-04-21T15:15:42;97251.94;;;22.81;39.21
42601;BME280;28229;48.856;9.088;2023-04-21T15:18:08;97248.19;;;23.08;39.24
42601;BME280;28229;48.856;9.088;2023-04-21T15:20:35;97245.19;;;23.36;38.80
42601;BME280;28229;48.856;9.088;2023-04-21T15:23:01;97237.63;;;23.21;38.67
42601;BME280;28229;48.856;9.088;2023-04-21T15:25:27;97233.50;;;22.88;39.59
42601;BME280;28229;48.856;9.088;2023-04-21T15:27:53;97231.78;;;22.92;37.86
42601;BME280;28229;48.856;9.088;2023-04-21T15:30:20;97233.47;;;22.62;36.80
42601;BME280;28229;48.856;9.088;2023-04-21T15:32:46;97232.47;;;22.40;37.42
42601;BME280;28229;48.856;9.088;2023-04-21T15:35:12;97236.78;;;22.19;36.83
42601;BME280;28229;48.856;9.088;2023-04-21T15:37:41;97230.13;;;22.08;37.63
42601;BME280;28229;48.856;9.088;2023-04-21T15:40:07;97231.38;;;21.70;39.69
42601;BME280;28229;48.856;9.088;2023-04-21T15:42:34;97230.84;;;21.59;41.03
42601;BME280;28229;48.856;9.088;2023-04-21T15:45:00;97231.09;;;21.49;41.43
42601;BME280;28229;48.856;9.088;2023-04-21T15:47:29;97231.81;;;21.41;41.83
42601;BME280;28229;48.856;9.088;2023-04-21T15:49:55;97229.00;;;21.23;39.01
42601;BME280;28229;48.856;9.088;2023-04-21T15:52:21;97224.31;;;21.06;37.73
42601;BME280;28229;48.856;9.088;2023-04-21T15:54:48;97230.69;;;20.97;37.51
42601;BME280;28229;48.856;9.088;2023-04-21T15:57:14;97223.13;;;20.62;37.35
42601;BME280;28229;48.856;9.088;2023-04-21T15:59:40;97229.94;;;20.54;37.64
42601;BME280;28229;48.856;9.088;2023-04-21T16:02:06;97225.53;;;20.36;38.96
42601;BME280;28229;48.856;9.088;2023-04-21T16:04:33;97215.53;;;20.28;38.51
42601;BME280;28229;48.856;9.088;2023-04-21T16:06:59;97221.66;;;20.28;38.99
42601;BME280;28229;48.856;9.088;2023-04-21T16:09:25;97221.75;;;20.09;39.74
42601;BME280;28229;48.856;9.088;2023-04-21T16:11:52;97225.19;;;19.96;40.48
42601;BME280;28229;48.856;9.088;2023-04-21T16:14:18;97221.53;;;19.92;40.72
42601;BME280;28229;48.856;9.088;2023-04-21T16:16:44;97219.66;;;19.92;40.81
42601;BME280;28229;48.856;9.088;2023-04-21T16:19:10;97217.81;;;19.60;41.17
42601;BME280;28229;48.856;9.088;2023-04-21T16:21:37;97218.22;;;19.67;41.60
42601;BME280;28229;48.856;9.088;2023-04-21T16:24:05;97218.66;;;19.74;41.29
42601;BME280;28229;48.856;9.088;2023-04-21T16:26:32;97214.72;;;19.86;41.24
42601;BME280;28229;48.856;9.088;2023-04-21T16:28:59;97208.69;;;19.94;41.54
42601;BME280;28229;48.856;9.088;2023-04-21T16:31:25;97208.59;;;19.99;42.00
42601;BME280;28229;48.856;9.088;2023-04-21T16:33:51;97213.16;;;19.99;41.95
42601;BME280;28229;48.856;9.088;2023-04-21T16:36:17;97197.34;;;20.02;41.43
42601;BME280;28229;48.856;9.088;2023-04-21T16:38:45;97199.41;;;20.05;41.75
42601;BME280;28229;48.856;9.088;2023-04-21T16:41:11;97199.91;;;20.07;41.94
42601;BME280;28229;48.856;9.088;2023-04-21T16:43:37;97202.66;;;19.88;43.40
42601;BME280;28229;48.856;9.088;2023-04-21T16:46:03;97202.88;;;19.92;43.60
42601;BME280;28229;48.856;9.088;2023-04-21T16:48:30;97196.53;;;19.88;43.72
42601;BME280;28229;48.856;9.088;2023-04-21T16:50:56;97198.91;;;19.75;44.12
42601;BME280;28229;48.856;9.088;2023-04-21T16:53:22;97196.47;;;19.60;44.48
42601;BME280;28229;48.856;9.088;2023-04-21T16:55:50;97197.59;;;19.40;45.32
42601;BME280;28229;48.856;9.088;2023-04-21T16:58:16;97202.41;;;19.24;46.46
42601;BME280;28229;48.856;9.088;2023-04-21T17:00:42;97199.38;;;19.12;46.62
42601;BME280;28229;48.856;9.088;2023-04-21T17:03:09;97190.63;;;18.92;47.16
42601;BME280;28229;48.856;9.088;2023-04-21T17:05:35;97188.03;;;18.87;47.67
42601;BME280;28229;48.856;9.088;2023-04-21T17:08:01;97192.41;;;18.78;48.39
42601;BME280;28229;48.856;9.088;2023-04-21T17:10:27;97186.34;;;18.53;49.11
42601;BME280;28229;48.856;9.088;2023-04-21T17:12:53;97195.31;;;18.38;49.52
42601;BME280;28229;48.856;9.088;2023-04-21T17:15:20;97189.91;;;18.24;50.52
42601;BME280;28229;48.856;9.088;2023-04-21T17:17:46;97191.88;;;18.14;50.48
42601;BME280;28229;48.856;9.088;2023-04-21T17:20:13;97188.56;;;18.03;50.63
42601;BME280;28229;48.856;9.088;2023-04-21T17:22:40;97183.22;;;18.03;50.65
42601;BME280;28229;48.856;9.088;2023-04-21T17:25:07;97184.94;;;17.94;50.75
42601;BME280;28229;48.856;9.088;2023-04-21T17:27:35;97187.09;;;17.92;50.90
42601;BME280;28229;48.856;9.088;2023-04-21T17:30:03;97195.66;;;17.83;52.00
42601;BME280;28229;48.856;9.088;2023-04-21T17:32:30;97206.84;;;17.80;51.74
42601;BME280;28229;48.856;9.088;2023-04-21T17:34:56;97204.31;;;17.70;52.85
42601;BME280;28229;48.856;9.088;2023-04-21T17:37:22;97200.59;;;17.66;54.95
42601;BME280;28229;48.856;9.088;2023-04-21T17:39:48;97205.69;;;17.62;55.65
42601;BME280;28229;48.856;9.088;2023-04-21T17:42:15;97199.34;;;17.58;55.60
42601;BME280;28229;48.856;9.088;2023-04-21T17:44:41;97212.53;;;17.39;55.19
42601;BME280;28229;48.856;9.088;2023-04-21T17:47:07;97215.72;;;17.41;54.36
42601;BME280;28229;48.856;9.088;2023-04-21T17:49:36;97228.31;;;17.25;57.61
42601;BME280;28229;48.856;9.088;2023-04-21T17:52:03;97228.72;;;17.08;58.35
42601;BME280;28229;48.856;9.088;2023-04-21T17:54:30;97227.53;;;16.90;58.55
42601;BME280;28229;48.856;9.088;2023-04-21T17:56:56;97221.97;;;16.82;59.16
42601;BME280;28229;48.856;9.088;2023-04-21T17:59:26;97222.03;;;16.66;60.22
42601;BME280;28229;48.856;9.088;2023-04-21T18:01:52;97226.31;;;16.62;60.92
42601;BME280;28229;48.856;9.088;2023-04-21T18:04:19;97228.75;;;16.53;61.84